createdAt,value
2018-12-09T00:00:40.518Z,871.46
2018-12-09T00:01:40.528Z,871.44
2018-12-09T00:02:40.510Z,871.46
2018-12-09T00:03:40.867Z,871.43
2018-12-09T00:04:40.486Z,871.46
2018-12-09T00:05:40.845Z,871.45
2018-12-09T00:06:40.952Z,871.44
2018-12-09T00:07:40.862Z,871.45
2018-12-09T00:08:40.476Z,871.42
2018-12-09T00:09:40.504Z,871.42
2018-12-09T00:10:40.799Z,871.44
2018-12-09T00:11:40.794Z,871.47
2018-12-09T00:12:40.827Z,871.43
2018-12-09T00:13:40.764Z,871.43
2018-12-09T00:14:40.763Z,871.46
2018-12-09T00:15:40.807Z,871.49
2018-12-09T00:16:40.784Z,871.51
2018-12-09T00:17:40.776Z,871.55
2018-12-09T00:18:40.389Z,871.49
2018-12-09T00:19:40.412Z,871.53
2018-12-09T00:20:40.412Z,871.54
2018-12-09T00:21:40.715Z,871.51
2018-12-09T00:22:40.712Z,871.55
2018-12-09T00:23:40.382Z,871.56
2018-12-09T00:24:40.374Z,871.57
2018-12-09T00:25:40.342Z,871.55
2018-12-09T00:26:40.372Z,871.56
2018-12-09T00:27:40.325Z,871.58
2018-12-09T00:28:40.650Z,871.55
2018-12-09T00:29:40.313Z,871.57
2018-12-09T00:30:40.654Z,871.56
2018-12-09T00:31:40.683Z,871.59
2018-12-09T00:32:40.309Z,871.61
2018-12-09T00:33:40.269Z,871.63
2018-12-09T00:34:40.300Z,871.65
2018-12-09T00:35:40.630Z,871.65
2018-12-09T00:36:40.599Z,871.67
2018-12-09T00:37:40.582Z,871.71
2018-12-09T00:38:40.629Z,871.73
2018-12-09T00:39:40.609Z,871.78
2018-12-09T00:40:40.227Z,871.77
2018-12-09T00:41:40.571Z,871.75
2018-12-09T00:42:43.535Z,871.80
2018-12-09T00:43:40.240Z,871.80
2018-12-09T00:44:40.200Z,871.81
2018-12-09T00:45:40.586Z,871.83
2018-12-09T00:46:40.530Z,871.85
2018-12-09T00:47:40.524Z,871.88
2018-12-09T00:48:40.204Z,871.89
2018-12-09T00:49:40.528Z,871.94
2018-12-09T00:50:40.182Z,871.90
2018-12-09T00:51:40.167Z,871.96
2018-12-09T00:52:40.518Z,871.93
2018-12-09T00:53:40.520Z,871.96
2018-12-09T00:54:40.481Z,871.95
2018-12-09T00:55:40.461Z,871.94
2018-12-09T00:56:40.498Z,871.96
2018-12-09T00:57:40.457Z,872.01
2018-12-09T00:58:40.104Z,872.01
2018-12-09T00:59:40.463Z,871.97
2018-12-09T01:00:40.466Z,871.98
2018-12-09T01:01:40.414Z,871.98
2018-12-09T01:02:40.063Z,871.95
2018-12-09T01:03:40.396Z,871.97
2018-12-09T01:04:40.394Z,871.97
2018-12-09T01:05:40.066Z,871.93
2018-12-09T01:06:40.368Z,871.94
2018-12-09T01:07:40.418Z,871.96
2018-12-09T01:08:40.021Z,871.94
2018-12-09T01:09:40.036Z,871.97
2018-12-09T01:10:40.028Z,871.97
2018-12-09T01:11:40.366Z,871.97
2018-12-09T01:12:39.990Z,871.96
2018-12-09T01:13:40.001Z,871.95
2018-12-09T01:14:40.004Z,871.96
2018-12-09T01:15:39.995Z,871.96
2018-12-09T01:16:40.010Z,871.96
2018-12-09T01:17:39.982Z,872.02
2018-12-09T01:18:40.295Z,872.03
2018-12-09T01:19:40.271Z,872.07
2018-12-09T01:20:40.305Z,872.06
2018-12-09T01:21:40.252Z,872.07
2018-12-09T01:22:40.282Z,872.10
2018-12-09T01:23:39.935Z,872.07
2018-12-09T01:24:40.263Z,872.08
2018-12-09T01:25:40.226Z,872.08
2018-12-09T01:26:39.887Z,872.09
2018-12-09T01:27:40.219Z,872.08
2018-12-09T01:28:39.880Z,872.14
2018-12-09T01:29:40.259Z,872.10
2018-12-09T01:30:40.187Z,872.14
2018-12-09T01:31:39.861Z,872.14
2018-12-09T01:32:39.846Z,872.18
2018-12-09T01:33:40.181Z,872.15
2018-12-09T01:34:40.208Z,872.18
2018-12-09T01:35:40.195Z,872.19
2018-12-09T01:36:39.815Z,872.22
2018-12-09T01:37:39.809Z,872.23
2018-12-09T01:38:39.803Z,872.23
2018-12-09T01:39:40.177Z,872.21
2018-12-09T01:40:40.133Z,872.22
2018-12-09T01:41:40.160Z,872.22
2018-12-09T01:42:40.145Z,872.22
2018-12-09T01:43:39.761Z,872.26
2018-12-09T01:44:39.778Z,872.25
2018-12-09T01:45:39.782Z,872.26
2018-12-09T01:46:39.770Z,872.28
2018-12-09T01:47:40.118Z,872.31
2018-12-09T01:48:39.719Z,872.28
2018-12-09T01:49:40.098Z,872.27
2018-12-09T01:50:40.100Z,872.30
2018-12-09T01:51:39.742Z,872.30
2018-12-09T01:52:40.053Z,872.30
2018-12-09T01:53:39.690Z,872.36
2018-12-09T01:54:40.054Z,872.38
2018-12-09T01:55:40.032Z,872.39
2018-12-09T01:56:39.667Z,872.40
2018-12-09T01:57:39.689Z,872.44
2018-12-09T01:58:39.660Z,872.47
2018-12-09T01:59:39.643Z,872.46
2018-12-09T02:00:39.686Z,872.53
2018-12-09T02:01:40.018Z,872.55
2018-12-09T02:02:39.661Z,872.53
2018-12-09T02:03:39.995Z,872.52
2018-12-09T02:04:39.655Z,872.55
2018-12-09T02:05:39.949Z,872.54
2018-12-09T02:06:39.943Z,872.52
2018-12-09T02:07:39.630Z,872.54
2018-12-09T02:08:39.933Z,872.50
2018-12-09T02:09:39.947Z,872.55
2018-12-09T02:10:39.561Z,872.55
2018-12-09T02:11:39.918Z,872.56
2018-12-09T02:12:39.878Z,872.61
2018-12-09T02:13:39.927Z,872.62
2018-12-09T02:14:39.526Z,872.61
2018-12-09T02:15:39.537Z,872.63
2018-12-09T02:16:39.882Z,872.64
2018-12-09T02:17:39.540Z,872.66
2018-12-09T02:18:39.504Z,872.71
2018-12-09T02:19:39.856Z,872.68
2018-12-09T02:20:39.484Z,872.72
2018-12-09T02:21:39.870Z,872.70
2018-12-09T02:22:39.811Z,872.69
2018-12-09T02:23:39.461Z,872.70
2018-12-09T02:24:39.496Z,872.74
2018-12-09T02:25:39.492Z,872.72
2018-12-09T02:26:39.837Z,872.72
2018-12-09T02:27:39.795Z,872.74
2018-12-09T02:28:39.425Z,872.74
2018-12-09T02:29:39.773Z,872.77
2018-12-09T02:30:39.451Z,872.77
2018-12-09T02:31:39.757Z,872.77
2018-12-09T02:32:39.743Z,872.77
2018-12-09T02:33:39.420Z,872.77
2018-12-09T02:34:39.716Z,872.84
2018-12-09T02:35:39.425Z,872.80
2018-12-09T02:36:39.411Z,872.81
2018-12-09T02:37:39.748Z,872.79
2018-12-09T02:38:39.722Z,872.81
2018-12-09T02:39:39.683Z,872.81
2018-12-09T02:40:39.372Z,872.81
2018-12-09T02:41:39.702Z,872.79
2018-12-09T02:42:39.685Z,872.77
2018-12-09T02:43:39.312Z,872.76
2018-12-09T02:44:39.648Z,872.74
2018-12-09T02:45:39.654Z,872.75
2018-12-09T02:46:39.323Z,872.76
2018-12-09T02:47:39.643Z,872.75
2018-12-09T02:48:39.280Z,872.78
2018-12-09T02:49:39.279Z,872.76
2018-12-09T02:50:39.653Z,872.72
2018-12-09T02:51:39.259Z,872.74
2018-12-09T02:52:39.611Z,872.74
2018-12-09T02:53:39.603Z,872.76
2018-12-09T02:54:39.275Z,872.71
2018-12-09T02:55:39.594Z,872.72
2018-12-09T02:56:39.576Z,872.70
2018-12-09T02:57:39.584Z,872.75
2018-12-09T02:58:39.595Z,872.77
2018-12-09T02:59:39.533Z,872.77
2018-12-09T03:00:39.534Z,872.79
2018-12-09T03:01:39.208Z,872.83
2018-12-09T03:02:39.174Z,872.84
2018-12-09T03:03:39.576Z,872.86
2018-12-09T03:04:39.206Z,872.87
2018-12-09T03:05:39.198Z,872.88
2018-12-09T03:06:39.512Z,872.89
2018-12-09T03:07:39.478Z,872.87
2018-12-09T03:08:39.515Z,872.91
2018-12-09T03:09:39.514Z,872.87
2018-12-09T03:10:39.126Z,872.88
2018-12-09T03:11:39.162Z,872.86
2018-12-09T03:12:41.425Z,872.86
2018-12-09T03:13:39.128Z,872.90
2018-12-09T03:14:39.470Z,872.84
2018-12-09T03:15:39.452Z,872.86
2018-12-09T03:16:39.433Z,872.87
2018-12-09T03:17:39.104Z,872.86
2018-12-09T03:18:39.075Z,872.86
2018-12-09T03:19:39.061Z,872.85
2018-12-09T03:20:39.088Z,872.85
2018-12-09T03:21:39.084Z,872.85
2018-12-09T03:22:39.070Z,872.87
2018-12-09T03:23:39.027Z,872.84
2018-12-09T03:24:39.382Z,872.85
2018-12-09T03:25:39.346Z,872.84
2018-12-09T03:26:39.362Z,872.89
2018-12-09T03:27:39.345Z,872.83
2018-12-09T03:28:39.027Z,872.84
2018-12-09T03:29:39.016Z,872.80
2018-12-09T03:30:39.373Z,872.82
2018-12-09T03:31:38.982Z,872.79
2018-12-09T03:32:39.320Z,872.80
2018-12-09T03:33:39.316Z,872.81
2018-12-09T03:34:38.961Z,872.79
2018-12-09T03:35:39.314Z,872.85
2018-12-09T03:36:39.268Z,872.77
2018-12-09T03:37:38.929Z,872.79
2018-12-09T03:38:38.953Z,872.74
2018-12-09T03:39:39.300Z,872.74
2018-12-09T03:40:38.949Z,872.74
2018-12-09T03:41:38.956Z,872.77
2018-12-09T03:42:39.277Z,872.80
2018-12-09T03:43:39.276Z,872.77
2018-12-09T03:44:38.878Z,872.77
2018-12-09T03:45:39.252Z,872.76
2018-12-09T03:46:38.893Z,872.72
2018-12-09T03:47:38.867Z,872.73
2018-12-09T03:48:38.853Z,872.79
2018-12-09T03:49:39.182Z,872.73
2018-12-09T03:50:39.184Z,872.74
2018-12-09T03:51:38.849Z,872.72
2018-12-09T03:52:39.197Z,872.71
2018-12-09T03:53:39.158Z,872.71
2018-12-09T03:54:38.851Z,872.70
2018-12-09T03:55:39.158Z,872.69
2018-12-09T03:56:38.791Z,872.67
2018-12-09T03:57:39.140Z,872.67
2018-12-09T03:58:39.412Z,872.62
2018-12-09T03:59:38.776Z,872.66
2018-12-09T04:00:39.111Z,872.62
2018-12-09T04:01:38.799Z,872.62
2018-12-09T04:02:38.754Z,872.64
2018-12-09T04:03:39.100Z,872.64
2018-12-09T04:04:39.124Z,872.64
2018-12-09T04:05:38.753Z,872.67
2018-12-09T04:06:38.740Z,872.63
2018-12-09T04:07:38.711Z,872.63
2018-12-09T04:08:39.075Z,872.62
2018-12-09T04:09:38.734Z,872.59
2018-12-09T04:10:38.725Z,872.60
2018-12-09T04:11:39.013Z,872.65
2018-12-09T04:12:38.673Z,872.62
2018-12-09T04:13:39.013Z,872.62
2018-12-09T04:14:39.004Z,872.66
2018-12-09T04:15:38.647Z,872.64
2018-12-09T04:16:38.992Z,872.57
2018-12-09T04:17:38.670Z,872.58
2018-12-09T04:18:38.982Z,872.58
2018-12-09T04:19:38.652Z,872.54
2018-12-09T04:20:38.653Z,872.55
2018-12-09T04:21:38.983Z,872.55
2018-12-09T04:22:38.621Z,872.52
2018-12-09T04:23:38.625Z,872.51
2018-12-09T04:24:38.616Z,872.54
2018-12-09T04:25:38.583Z,872.49
2018-12-09T04:26:38.607Z,872.51
2018-12-09T04:27:38.595Z,872.49
2018-12-09T04:28:38.916Z,872.49
2018-12-09T04:29:38.583Z,872.52
2018-12-09T04:30:38.913Z,872.46
2018-12-09T04:31:38.905Z,872.50
2018-12-09T04:32:38.525Z,872.47
2018-12-09T04:33:38.884Z,872.46
2018-12-09T04:34:38.880Z,872.44
2018-12-09T04:35:38.886Z,872.44
2018-12-09T04:36:38.884Z,872.43
2018-12-09T04:37:38.825Z,872.46
2018-12-09T04:38:38.831Z,872.45
2018-12-09T04:39:38.855Z,872.42
2018-12-09T04:40:38.500Z,872.44
2018-12-09T04:41:38.843Z,872.46
2018-12-09T04:42:38.801Z,872.43
2018-12-09T04:43:38.474Z,872.45
2018-12-09T04:44:38.808Z,872.46
2018-12-09T04:45:38.449Z,872.45
2018-12-09T04:46:38.449Z,872.42
2018-12-09T04:47:38.422Z,872.43
2018-12-09T04:48:38.415Z,872.46
2018-12-09T04:49:38.438Z,872.44
2018-12-09T04:50:38.748Z,872.42
2018-12-09T04:51:38.409Z,872.43
2018-12-09T04:52:38.719Z,872.53
2018-12-09T04:53:38.704Z,872.41
2018-12-09T04:54:38.738Z,872.42
2018-12-09T04:55:38.695Z,872.44
2018-12-09T04:56:38.397Z,872.38
2018-12-09T04:57:38.733Z,872.42
2018-12-09T04:58:38.373Z,872.49
2018-12-09T04:59:38.369Z,872.48
2018-12-09T05:00:38.327Z,872.48
2018-12-09T05:01:38.699Z,872.45
2018-12-09T05:02:38.666Z,872.49
2018-12-09T05:03:38.307Z,872.49
2018-12-09T05:04:38.656Z,872.48
2018-12-09T05:05:38.647Z,872.45
2018-12-09T05:06:38.273Z,872.45
2018-12-09T05:07:38.623Z,872.46
2018-12-09T05:08:38.290Z,872.45
2018-12-09T05:09:38.641Z,872.43
2018-12-09T05:10:38.604Z,872.43
2018-12-09T05:11:38.639Z,872.40
2018-12-09T05:12:38.285Z,872.39
2018-12-09T05:13:38.275Z,872.37
2018-12-09T05:14:38.293Z,872.37
2018-12-09T05:15:38.610Z,872.37
2018-12-09T05:16:38.240Z,872.35
2018-12-09T05:17:38.229Z,872.39
2018-12-09T05:18:38.224Z,872.34
2018-12-09T05:19:38.577Z,872.35
2018-12-09T05:20:38.571Z,872.37
2018-12-09T05:21:38.522Z,872.36
2018-12-09T05:22:38.181Z,872.36
2018-12-09T05:23:38.213Z,872.37
2018-12-09T05:24:38.186Z,872.37
2018-12-09T05:25:38.155Z,872.35
2018-12-09T05:26:38.177Z,872.38
2018-12-09T05:27:38.506Z,872.34
2018-12-09T05:28:38.154Z,872.38
2018-12-09T05:29:38.153Z,872.34
2018-12-09T05:30:38.483Z,872.34
2018-12-09T05:31:38.145Z,872.31
2018-12-09T05:32:38.500Z,872.34
2018-12-09T05:33:38.087Z,872.33
2018-12-09T05:34:38.079Z,872.33
2018-12-09T05:35:38.104Z,872.28
2018-12-09T05:36:38.398Z,872.27
2018-12-09T05:37:38.398Z,872.26
2018-12-09T05:38:38.095Z,872.30
2018-12-09T05:39:38.392Z,872.29
2018-12-09T05:40:38.403Z,872.30
2018-12-09T05:41:38.033Z,872.31
2018-12-09T05:42:38.377Z,872.31
2018-12-09T05:43:38.062Z,872.29
2018-12-09T05:44:38.008Z,872.31
2018-12-09T05:45:37.998Z,872.37
2018-12-09T05:46:38.388Z,872.38
2018-12-09T05:47:37.990Z,872.39
2018-12-09T05:48:37.969Z,872.43
2018-12-09T05:49:37.961Z,872.41
2018-12-09T05:50:38.349Z,872.43
2018-12-09T05:51:38.337Z,872.43
2018-12-09T05:52:38.315Z,872.44
2018-12-09T05:53:37.948Z,872.45
2018-12-09T05:54:38.329Z,872.41
2018-12-09T05:55:38.312Z,872.45
2018-12-09T05:56:37.944Z,872.45
2018-12-09T05:57:38.283Z,872.43
2018-12-09T05:58:37.934Z,872.48
2018-12-09T05:59:37.936Z,872.48
2018-12-09T06:00:37.896Z,872.47
2018-12-09T06:01:37.925Z,872.49
2018-12-09T06:02:37.870Z,872.50
2018-12-09T06:03:37.910Z,872.47
2018-12-09T06:04:37.907Z,872.54
2018-12-09T06:05:38.227Z,872.50
2018-12-09T06:06:37.875Z,872.50
2018-12-09T06:07:38.216Z,872.51
2018-12-09T06:08:37.874Z,872.53
2018-12-09T06:09:38.687Z,872.50
2018-12-09T06:10:38.203Z,872.53
2018-12-09T06:11:38.165Z,872.56
2018-12-09T06:12:37.816Z,872.54
2018-12-09T06:13:37.837Z,872.53
2018-12-09T06:14:38.124Z,872.51
2018-12-09T06:15:37.780Z,872.53
2018-12-09T06:16:37.801Z,872.55
2018-12-09T06:17:37.803Z,872.53
2018-12-09T06:18:38.112Z,872.57
2018-12-09T06:19:38.113Z,872.56
2018-12-09T06:20:38.137Z,872.54
2018-12-09T06:21:37.741Z,872.54
2018-12-09T06:22:38.090Z,872.57
2018-12-09T06:23:38.059Z,872.57
2018-12-09T06:24:38.084Z,872.54
2018-12-09T06:25:38.061Z,872.60
2018-12-09T06:26:37.692Z,872.62
2018-12-09T06:27:37.733Z,872.59
2018-12-09T06:28:38.050Z,872.59
2018-12-09T06:29:38.024Z,872.57
2018-12-09T06:30:37.721Z,872.59
2018-12-09T06:31:37.691Z,872.59
2018-12-09T06:32:37.666Z,872.66
2018-12-09T06:33:37.645Z,872.63
2018-12-09T06:34:37.998Z,872.64
2018-12-09T06:35:37.672Z,872.65
2018-12-09T06:36:38.001Z,872.69
2018-12-09T06:37:37.642Z,872.71
2018-12-09T06:38:37.646Z,872.71
2018-12-09T06:39:37.952Z,872.74
2018-12-09T06:40:37.937Z,872.75
2018-12-09T06:41:37.957Z,872.76
2018-12-09T06:42:37.633Z,872.74
2018-12-09T06:43:37.958Z,872.75
2018-12-09T06:44:37.571Z,872.82
2018-12-09T06:45:37.595Z,872.78
2018-12-09T06:46:37.587Z,872.78
2018-12-09T06:47:37.592Z,872.87
2018-12-09T06:48:37.577Z,872.82
2018-12-09T06:49:37.917Z,872.84
2018-12-09T06:50:37.535Z,872.89
2018-12-09T06:51:37.857Z,872.86
2018-12-09T06:52:37.852Z,872.93
2018-12-09T06:53:37.876Z,872.91
2018-12-09T06:54:37.496Z,872.92
2018-12-09T06:55:37.863Z,872.91
2018-12-09T06:56:37.876Z,872.90
2018-12-09T06:57:37.480Z,872.84
2018-12-09T06:58:37.511Z,872.88
2018-12-09T06:59:37.808Z,872.88
2018-12-09T07:00:37.499Z,872.85
2018-12-09T07:01:37.449Z,872.87
2018-12-09T07:02:37.812Z,872.91
2018-12-09T07:03:37.474Z,872.83
2018-12-09T07:04:37.433Z,872.92
2018-12-09T07:05:37.790Z,872.88
2018-12-09T07:06:37.776Z,872.87
2018-12-09T07:07:37.805Z,872.89
2018-12-09T07:08:37.791Z,872.91
2018-12-09T07:09:37.740Z,872.91
2018-12-09T07:10:37.783Z,872.91
2018-12-09T07:11:37.764Z,872.96
2018-12-09T07:12:37.821Z,872.98
2018-12-09T07:13:37.410Z,873.01
2018-12-09T07:14:37.371Z,873.01
2018-12-09T07:15:37.349Z,873.02
2018-12-09T07:16:37.349Z,873.06
2018-12-09T07:17:37.357Z,873.09
2018-12-09T07:18:37.332Z,873.10
2018-12-09T07:19:37.663Z,873.09
2018-12-09T07:20:37.678Z,873.12
2018-12-09T07:21:37.309Z,873.14
2018-12-09T07:22:37.300Z,873.15
2018-12-09T07:23:37.343Z,873.19
2018-12-09T07:24:37.323Z,873.20
2018-12-09T07:25:37.636Z,873.19
2018-12-09T07:26:37.602Z,873.20
2018-12-09T07:27:37.642Z,873.21
2018-12-09T07:28:37.303Z,873.23
2018-12-09T07:29:37.259Z,873.20
2018-12-09T07:30:37.625Z,873.23
2018-12-09T07:31:37.242Z,873.19
2018-12-09T07:32:37.573Z,873.28
2018-12-09T07:33:37.564Z,873.25
2018-12-09T07:34:37.206Z,873.29
2018-12-09T07:35:37.591Z,873.30
2018-12-09T07:36:37.239Z,873.30
2018-12-09T07:37:37.565Z,873.30
2018-12-09T07:38:37.217Z,873.30
2018-12-09T07:39:37.182Z,873.30
2018-12-09T07:40:37.165Z,873.34
2018-12-09T07:41:37.197Z,873.33
2018-12-09T07:42:37.160Z,873.37
2018-12-09T07:43:37.524Z,873.35
2018-12-09T07:44:37.138Z,873.36
2018-12-09T07:45:37.143Z,873.38
2018-12-09T07:46:37.499Z,873.37
2018-12-09T07:47:37.114Z,873.35
2018-12-09T07:48:37.473Z,873.41
2018-12-09T07:49:37.467Z,873.43
2018-12-09T07:50:37.495Z,873.42
2018-12-09T07:51:37.439Z,873.42
2018-12-09T07:52:37.471Z,873.44
2018-12-09T07:53:37.073Z,873.47
2018-12-09T07:54:37.404Z,873.48
2018-12-09T07:55:37.440Z,873.50
2018-12-09T07:56:37.415Z,873.49
2018-12-09T07:57:37.414Z,873.49
2018-12-09T07:58:37.394Z,873.52
2018-12-09T07:59:37.404Z,873.50
2018-12-09T08:00:37.358Z,873.57
2018-12-09T08:01:37.382Z,873.54
2018-12-09T08:02:37.044Z,873.55
2018-12-09T08:03:37.400Z,873.58
2018-12-09T08:04:37.022Z,873.52
2018-12-09T08:05:36.991Z,873.53
2018-12-09T08:06:37.369Z,873.54
2018-12-09T08:07:37.006Z,873.53
2018-12-09T08:08:37.315Z,873.58
2018-12-09T08:09:36.987Z,873.62
2018-12-09T08:10:36.958Z,873.58
2018-12-09T08:11:37.327Z,873.60
2018-12-09T08:12:37.287Z,873.62
2018-12-09T08:13:37.327Z,873.68
2018-12-09T08:14:36.936Z,873.70
2018-12-09T08:15:37.304Z,873.68
2018-12-09T08:16:37.262Z,873.66
2018-12-09T08:17:36.924Z,873.70
2018-12-09T08:18:36.901Z,873.67
2018-12-09T08:19:36.893Z,873.65
2018-12-09T08:20:37.233Z,873.69
2018-12-09T08:21:36.883Z,873.70
2018-12-09T08:22:36.870Z,873.74
2018-12-09T08:23:37.248Z,873.75
2018-12-09T08:24:37.235Z,873.75
2018-12-09T08:25:37.180Z,873.79
2018-12-09T08:26:37.204Z,873.76
2018-12-09T08:27:36.835Z,873.79
2018-12-09T08:28:36.817Z,873.78
2018-12-09T08:29:37.152Z,873.82
2018-12-09T08:30:38.056Z,873.80
2018-12-09T08:31:36.816Z,873.80
2018-12-09T08:32:36.827Z,873.84
2018-12-09T08:33:36.826Z,873.84
2018-12-09T08:34:37.444Z,873.90
2018-12-09T08:35:36.813Z,873.90
2018-12-09T08:36:37.133Z,873.88
2018-12-09T08:37:36.796Z,873.94
2018-12-09T08:38:37.084Z,873.93
2018-12-09T08:39:36.757Z,873.91
2018-12-09T08:40:36.744Z,873.95
2018-12-09T08:41:36.742Z,873.96
2018-12-09T08:42:37.070Z,873.98
2018-12-09T08:43:36.721Z,874.01
2018-12-09T08:44:36.737Z,873.96
2018-12-09T08:45:36.744Z,873.94
2018-12-09T08:46:36.696Z,873.97
2018-12-09T08:47:36.688Z,873.97
2018-12-09T08:48:36.693Z,874.00
2018-12-09T08:49:37.005Z,874.04
2018-12-09T08:50:36.675Z,874.03
2018-12-09T08:51:37.025Z,874.02
2018-12-09T08:52:36.996Z,874.01
2018-12-09T08:53:37.000Z,874.07
2018-12-09T08:54:36.681Z,874.07
2018-12-09T08:55:36.642Z,874.06
2018-12-09T08:56:36.633Z,874.08
2018-12-09T08:57:36.611Z,874.10
2018-12-09T08:58:36.942Z,874.08
2018-12-09T08:59:36.615Z,874.11
2018-12-09T09:00:36.976Z,874.12
2018-12-09T09:01:36.626Z,874.17
2018-12-09T09:02:36.914Z,874.16
2018-12-09T09:03:36.933Z,874.15
2018-12-09T09:04:36.909Z,874.18
2018-12-09T09:05:36.947Z,874.18
2018-12-09T09:06:36.885Z,874.22
2018-12-09T09:07:36.541Z,874.22
2018-12-09T09:08:36.921Z,874.22
2018-12-09T09:09:36.877Z,874.21
2018-12-09T09:10:36.898Z,874.27
2018-12-09T09:11:36.527Z,874.30
2018-12-09T09:12:36.501Z,874.22
2018-12-09T09:13:36.502Z,874.26
2018-12-09T09:14:36.874Z,874.28
2018-12-09T09:15:36.493Z,874.28
2018-12-09T09:16:36.469Z,874.26
2018-12-09T09:17:36.829Z,874.24
2018-12-09T09:18:36.827Z,874.27
2018-12-09T09:19:36.790Z,874.26
2018-12-09T09:20:36.827Z,874.34
2018-12-09T09:21:36.438Z,874.33
2018-12-09T09:22:36.828Z,874.34
2018-12-09T09:23:36.458Z,874.32
2018-12-09T09:24:36.789Z,874.35
2018-12-09T09:25:36.452Z,874.38
2018-12-09T09:26:36.418Z,874.36
2018-12-09T09:27:36.751Z,874.37
2018-12-09T09:28:36.381Z,874.42
2018-12-09T09:29:36.738Z,874.40
2018-12-09T09:30:36.382Z,874.42
2018-12-09T09:31:36.410Z,874.45
2018-12-09T09:32:36.367Z,874.46
2018-12-09T09:33:36.742Z,874.46
2018-12-09T09:34:36.716Z,874.45
2018-12-09T09:35:36.350Z,874.49
2018-12-09T09:36:36.685Z,874.47
2018-12-09T09:37:36.335Z,874.53
2018-12-09T09:38:36.311Z,874.50
2018-12-09T09:39:36.670Z,874.50
2018-12-09T09:40:36.339Z,874.50
2018-12-09T09:41:36.318Z,874.50
2018-12-09T09:42:36.327Z,874.54
2018-12-09T09:43:36.620Z,874.57
2018-12-09T09:44:36.620Z,874.61
2018-12-09T09:45:36.264Z,874.60
2018-12-09T09:46:36.612Z,874.61
2018-12-09T09:47:36.302Z,874.64
2018-12-09T09:48:36.239Z,874.69
2018-12-09T09:49:36.230Z,874.71
2018-12-09T09:50:36.265Z,874.68
2018-12-09T09:51:36.567Z,874.69
2018-12-09T09:52:36.582Z,874.69
2018-12-09T09:53:36.219Z,874.69
2018-12-09T09:54:36.553Z,874.71
2018-12-09T09:55:36.230Z,874.73
2018-12-09T09:56:36.547Z,874.74
2018-12-09T09:57:36.529Z,874.73
2018-12-09T09:58:36.218Z,874.78
2018-12-09T09:59:36.167Z,874.81
2018-12-09T10:00:36.276Z,874.83
2018-12-09T10:01:36.153Z,874.83
2018-12-09T10:02:36.152Z,874.86
2018-12-09T10:03:36.497Z,874.86
2018-12-09T10:04:36.128Z,874.85
2018-12-09T10:05:36.118Z,874.85
2018-12-09T10:06:36.111Z,874.84
2018-12-09T10:07:36.444Z,874.90
2018-12-09T10:08:36.485Z,874.88
2018-12-09T10:09:36.121Z,874.86
2018-12-09T10:10:36.415Z,874.87
2018-12-09T10:11:36.082Z,874.93
2018-12-09T10:12:36.069Z,874.96
2018-12-09T10:13:36.458Z,874.98
2018-12-09T10:14:36.404Z,875.02
2018-12-09T10:15:36.041Z,875.03
2018-12-09T10:16:36.422Z,875.02
2018-12-09T10:17:36.366Z,875.05
2018-12-09T10:18:36.079Z,875.07
2018-12-09T10:19:36.367Z,875.10
2018-12-09T10:20:36.361Z,875.12
2018-12-09T10:21:36.005Z,875.13
2018-12-09T10:22:36.005Z,875.15
2018-12-09T10:23:35.986Z,875.13
2018-12-09T10:24:36.338Z,875.17
2018-12-09T10:25:36.006Z,875.18
2018-12-09T10:26:36.524Z,875.20
2018-12-09T10:27:35.993Z,875.20
2018-12-09T10:28:36.659Z,875.22
2018-12-09T10:29:36.289Z,875.25
2018-12-09T10:30:35.940Z,875.29
2018-12-09T10:31:36.264Z,875.32
2018-12-09T10:32:36.258Z,875.27
2018-12-09T10:33:35.927Z,875.27
2018-12-09T10:34:38.841Z,875.29
2018-12-09T10:35:36.250Z,875.24
2018-12-09T10:36:35.910Z,875.30
2018-12-09T10:37:36.271Z,875.33
2018-12-09T10:38:35.886Z,875.35
2018-12-09T10:39:35.894Z,875.40
2018-12-09T10:40:35.858Z,875.39
2018-12-09T10:41:36.219Z,875.43
2018-12-09T10:42:35.894Z,875.44
2018-12-09T10:43:35.846Z,875.48
2018-12-09T10:44:35.857Z,875.45
2018-12-09T10:45:35.875Z,875.45
2018-12-09T10:46:36.186Z,875.47
2018-12-09T10:47:36.167Z,875.49
2018-12-09T10:48:36.150Z,875.50
2018-12-09T10:49:35.836Z,875.50
2018-12-09T10:50:35.832Z,875.51
2018-12-09T10:51:36.128Z,875.56
2018-12-09T10:52:36.134Z,875.57
2018-12-09T10:53:35.764Z,875.56
2018-12-09T10:54:36.129Z,875.60
2018-12-09T10:55:35.788Z,875.57
2018-12-09T10:56:36.081Z,875.60
2018-12-09T10:57:36.085Z,875.60
2018-12-09T10:58:36.118Z,875.62
2018-12-09T10:59:36.063Z,875.65
2018-12-09T11:00:36.103Z,875.65
2018-12-09T11:01:36.059Z,875.68
2018-12-09T11:02:36.071Z,875.66
2018-12-09T11:03:35.692Z,875.68
2018-12-09T11:04:36.029Z,875.72
2018-12-09T11:05:36.039Z,875.72
2018-12-09T11:06:35.710Z,875.78
2018-12-09T11:07:36.028Z,875.77
2018-12-09T11:08:35.689Z,875.79
2018-12-09T11:09:35.665Z,875.81
2018-12-09T11:10:35.676Z,875.83
2018-12-09T11:11:35.648Z,875.85
2018-12-09T11:12:36.008Z,875.85
2018-12-09T11:13:35.998Z,875.89
2018-12-09T11:14:35.650Z,875.87
2018-12-09T11:15:35.972Z,875.87
2018-12-09T11:16:35.970Z,875.89
2018-12-09T11:17:35.961Z,875.89
2018-12-09T11:18:35.631Z,875.91
2018-12-09T11:19:35.605Z,875.93
2018-12-09T11:20:35.581Z,875.93
2018-12-09T11:21:35.903Z,875.93
2018-12-09T11:22:35.910Z,875.93
2018-12-09T11:23:35.556Z,875.97
2018-12-09T11:24:35.883Z,875.99
2018-12-09T11:25:35.572Z,876.03
2018-12-09T11:26:35.904Z,876.03
2018-12-09T11:27:35.552Z,876.04
2018-12-09T11:28:35.531Z,876.04
2018-12-09T11:29:35.512Z,876.04
2018-12-09T11:30:35.890Z,876.00
2018-12-09T11:31:35.517Z,876.01
2018-12-09T11:32:35.532Z,876.01
2018-12-09T11:33:35.851Z,875.99
2018-12-09T11:34:35.473Z,876.04
2018-12-09T11:35:35.852Z,876.05
2018-12-09T11:36:35.508Z,876.09
2018-12-09T11:37:35.814Z,876.13
2018-12-09T11:38:35.814Z,876.11
2018-12-09T11:39:35.469Z,876.11
2018-12-09T11:40:35.447Z,876.09
2018-12-09T11:41:35.449Z,876.17
2018-12-09T11:42:35.766Z,876.15
2018-12-09T11:43:35.782Z,876.17
2018-12-09T11:44:35.410Z,876.16
2018-12-09T11:45:35.745Z,876.15
2018-12-09T11:46:35.395Z,876.14
2018-12-09T11:47:35.747Z,876.14
2018-12-09T11:48:35.400Z,876.14
2018-12-09T11:49:35.743Z,876.12
2018-12-09T11:50:35.686Z,876.14
2018-12-09T11:51:35.352Z,876.12
2018-12-09T11:52:35.372Z,876.16
2018-12-09T11:53:36.638Z,876.15
2018-12-09T11:54:35.352Z,876.20
2018-12-09T11:55:35.366Z,876.23
2018-12-09T11:56:35.343Z,876.24
2018-12-09T11:57:35.323Z,876.21
2018-12-09T11:58:35.649Z,876.21
2018-12-09T11:59:35.671Z,876.22
2018-12-09T12:00:35.320Z,876.27
2018-12-09T12:01:35.623Z,876.30
2018-12-09T12:02:35.651Z,876.30
2018-12-09T12:03:35.647Z,876.32
2018-12-09T12:04:35.586Z,876.32
2018-12-09T12:05:35.255Z,876.39
2018-12-09T12:06:35.271Z,876.33
2018-12-09T12:07:35.258Z,876.32
2018-12-09T12:08:35.245Z,876.35
2018-12-09T12:09:35.598Z,876.38
2018-12-09T12:10:35.556Z,876.39
2018-12-09T12:11:35.218Z,876.41
2018-12-09T12:12:35.238Z,876.41
2018-12-09T12:13:35.527Z,876.42
2018-12-09T12:14:35.552Z,876.41
2018-12-09T12:15:35.217Z,876.48
2018-12-09T12:16:35.503Z,876.47
2018-12-09T12:17:35.628Z,876.43
2018-12-09T12:18:35.538Z,876.51
2018-12-09T12:19:35.489Z,876.52
2018-12-09T12:20:35.484Z,876.53
2018-12-09T12:21:35.494Z,876.53
2018-12-09T12:22:35.477Z,876.55
2018-12-09T12:23:35.501Z,876.54
2018-12-09T12:24:35.139Z,876.58
2018-12-09T12:25:35.462Z,876.59
2018-12-09T12:26:35.096Z,876.57
2018-12-09T12:27:35.424Z,876.60
2018-12-09T12:28:35.432Z,876.57